createdAt,value
2018-07-05T00:00:54.294Z,8.47
2018-07-05T00:03:40.639Z,16.47
2018-07-05T00:06:27.045Z,11.53
2018-07-05T00:09:13.455Z,14.03
2018-07-05T00:11:59.832Z,11.90
2018-07-05T00:14:46.099Z,15.57
2018-07-05T00:17:32.445Z,12.03
2018-07-05T00:20:18.747Z,10.47
2018-07-05T00:23:05.213Z,9.87
2018-07-05T00:25:51.596Z,13.40
2018-07-05T00:28:38.160Z,9.80
2018-07-05T00:31:24.462Z,11.90
2018-07-05T00:34:10.804Z,9.80
2018-07-05T00:36:57.282Z,12.40
2018-07-05T00:39:43.605Z,11.63
2018-07-05T00:42:29.969Z,8.87
2018-07-05T00:45:16.416Z,8.47
2018-07-05T00:48:02.889Z,15.27
2018-07-05T00:50:43.160Z,11.17
2018-07-05T00:53:29.357Z,13.03
2018-07-05T00:56:15.668Z,16.20
2018-07-05T00:59:02.256Z,13.27
2018-07-05T01:01:48.756Z,10.57
2018-07-05T01:04:35.172Z,14.10
2018-07-05T01:07:21.749Z,15.23
2018-07-05T01:10:08.216Z,11.43
2018-07-05T01:12:54.627Z,14.03
2018-07-05T01:15:41.063Z,11.13
2018-07-05T01:18:21.364Z,11.77
2018-07-05T01:21:07.818Z,14.00
2018-07-05T01:23:54.137Z,16.10
2018-07-05T01:26:40.529Z,10.30
2018-07-05T01:29:26.890Z,9.53
2018-07-05T01:32:13.239Z,10.13
2018-07-05T01:34:59.555Z,14.03
2018-07-05T01:37:46.030Z,10.50
2018-07-05T01:40:32.503Z,13.67
2018-07-05T01:43:18.923Z,13.67
2018-07-05T01:46:05.319Z,9.20
2018-07-05T01:48:51.743Z,13.70
2018-07-05T01:51:38.065Z,12.70
2018-07-05T01:54:24.307Z,13.37
2018-07-05T01:57:10.587Z,13.63
2018-07-05T01:59:57.013Z,11.80
2018-07-05T02:02:43.454Z,12.67
2018-07-05T02:05:29.962Z,14.07
2018-07-05T02:08:16.256Z,14.27
2018-07-05T02:11:02.548Z,12.60
2018-07-05T02:13:48.839Z,13.70
2018-07-05T02:16:29.172Z,14.07
2018-07-05T02:19:15.411Z,14.20
2018-07-05T02:21:55.851Z,28.43
2018-07-05T02:24:42.364Z,15.33
2018-07-05T02:27:28.873Z,16.87
2018-07-05T02:30:15.278Z,19.07
2018-07-05T02:33:01.947Z,16.07
2018-07-05T02:35:48.170Z,14.30
2018-07-05T02:38:34.655Z,12.47
2018-07-05T02:41:20.988Z,14.83
2018-07-05T02:44:07.336Z,10.73
2018-07-05T02:46:47.746Z,12.83
2018-07-05T02:49:33.863Z,12.60
2018-07-05T02:52:20.224Z,9.60
2018-07-05T02:55:06.810Z,6.63
2018-07-05T02:57:53.125Z,9.13
2018-07-05T03:00:42.857Z,13.90
2018-07-05T03:03:29.455Z,12.00
2018-07-05T03:06:16.007Z,9.40
2018-07-05T03:09:02.344Z,11.57
2018-07-05T03:11:48.729Z,9.47
2018-07-05T03:14:29.218Z,12.80
2018-07-05T03:17:15.715Z,12.57
2018-07-05T03:20:01.988Z,12.40
2018-07-05T03:22:48.404Z,9.13
2018-07-05T03:25:34.674Z,10.03
2018-07-05T03:28:21.325Z,12.00
2018-07-05T03:31:01.590Z,9.07
2018-07-05T03:33:47.855Z,10.63
2018-07-05T03:36:34.053Z,13.83
2018-07-05T03:39:20.439Z,17.70
2018-07-05T03:42:06.785Z,8.83
2018-07-05T03:44:53.387Z,10.47
2018-07-05T03:47:33.633Z,10.73
2018-07-05T03:50:20.050Z,8.37
2018-07-05T03:53:06.340Z,13.97
2018-07-05T03:55:53.022Z,13.63
2018-07-05T03:58:39.512Z,11.03
2018-07-05T04:01:19.926Z,8.50
2018-07-05T04:04:06.190Z,9.13
2018-07-05T04:06:52.439Z,9.23
2018-07-05T04:09:38.882Z,12.83
2018-07-05T04:12:25.104Z,11.43
2018-07-05T04:15:05.374Z,11.73
2018-07-05T04:17:51.556Z,12.23
2018-07-05T04:20:37.795Z,16.67
2018-07-05T04:23:24.136Z,14.03
2018-07-05T04:26:10.516Z,11.73
2018-07-05T04:28:56.919Z,10.67
2018-07-05T04:31:43.360Z,11.13
2018-07-05T04:34:29.989Z,12.53
2018-07-05T04:37:16.574Z,14.03
2018-07-05T04:39:56.958Z,13.63
2018-07-05T04:42:43.422Z,11.10
2018-07-05T04:45:29.834Z,15.90
2018-07-05T04:48:16.277Z,10.13
2018-07-05T04:50:56.531Z,11.63
2018-07-05T04:53:36.871Z,9.37
2018-07-05T04:56:23.835Z,14.63
2018-07-05T04:59:10.096Z,15.23
2018-07-05T05:01:56.361Z,12.60
2018-07-05T05:04:42.501Z,14.63
2018-07-05T05:07:29.206Z,11.83
2018-07-05T05:10:15.385Z,29.60
2018-07-05T05:12:55.630Z,29.40
2018-07-05T05:15:41.873Z,21.97
2018-07-05T05:18:28.291Z,15.43
2018-07-05T05:21:14.633Z,14.03
2018-07-05T05:24:01.038Z,15.90
2018-07-05T05:26:47.419Z,18.10
2018-07-05T05:29:33.657Z,28.60
2018-07-05T05:32:14.027Z,13.57
2018-07-05T05:35:00.619Z,19.10
2018-07-05T05:37:46.867Z,19.87
2018-07-05T05:40:33.424Z,16.30
2018-07-05T05:43:20.131Z,19.37
2018-07-05T05:46:06.637Z,17.70
2018-07-05T05:48:53.007Z,14.13
2018-07-05T05:51:39.255Z,21.53
2018-07-05T05:54:25.833Z,15.87
2018-07-05T05:57:06.078Z,14.63
2018-07-05T05:59:52.380Z,20.10
2018-07-05T06:02:32.742Z,18.53
2018-07-05T06:05:20.079Z,15.87
2018-07-05T06:08:06.543Z,12.10
2018-07-05T06:10:52.744Z,13.47
2018-07-05T06:13:39.387Z,23.97
2018-07-05T06:16:25.609Z,15.57
2018-07-05T06:19:12.072Z,12.00
2018-07-05T06:21:58.431Z,10.63
2018-07-05T06:24:44.712Z,9.03
2018-07-05T06:27:25.043Z,11.53
2018-07-05T06:30:11.423Z,7.90
2018-07-05T06:32:57.800Z,5.57
2018-07-05T06:35:44.557Z,12.17
2018-07-05T06:38:30.855Z,10.10
2018-07-05T06:41:17.365Z,8.20
2018-07-05T06:44:03.868Z,6.23
2018-07-05T06:46:50.914Z,7.40
2018-07-05T06:49:37.190Z,13.10
2018-07-05T06:52:23.466Z,6.80
2018-07-05T06:55:09.779Z,9.83
2018-07-05T06:57:56.059Z,12.20
2018-07-05T07:00:42.345Z,12.07
2018-07-05T07:03:28.623Z,7.33
2018-07-05T07:06:14.959Z,14.20
2018-07-05T07:09:01.304Z,11.20
2018-07-05T07:11:47.527Z,10.13
2018-07-05T07:14:33.798Z,8.00
2018-07-05T07:17:20.153Z,11.97
2018-07-05T07:20:06.419Z,8.27
2018-07-05T07:22:46.622Z,9.53
2018-07-05T07:25:32.698Z,14.87
2018-07-05T07:28:19.024Z,9.20
2018-07-05T07:30:59.386Z,9.40
2018-07-05T07:33:45.796Z,9.83
2018-07-05T07:36:32.036Z,5.27
2018-07-05T07:39:18.463Z,6.17
2018-07-05T07:41:52.325Z,9.03
2018-07-05T07:44:20.797Z,12.90
2018-07-05T07:46:48.860Z,4.27
2018-07-05T07:49:16.625Z,10.57
2018-07-05T07:51:44.265Z,11.90
2018-07-05T07:54:11.923Z,10.13
2018-07-05T07:56:39.605Z,6.37
2018-07-05T07:59:07.250Z,5.03
2018-07-05T08:01:34.908Z,9.20
2018-07-05T08:04:02.575Z,8.03
2018-07-05T08:06:30.218Z,6.10
2018-07-05T08:08:57.883Z,9.97
2018-07-05T08:11:25.552Z,8.03
2018-07-05T08:13:53.268Z,6.43
2018-07-05T08:16:20.894Z,6.73
2018-07-05T08:18:48.594Z,9.40
2018-07-05T08:21:16.247Z,12.10
2018-07-05T08:23:44.183Z,10.90
2018-07-05T08:26:11.763Z,6.40
2018-07-05T08:28:39.413Z,17.93
2018-07-05T08:31:07.089Z,8.20
2018-07-05T08:33:34.799Z,7.90
2018-07-05T08:36:02.467Z,8.10
2018-07-05T08:38:30.139Z,4.93
2018-07-05T08:40:57.811Z,4.00
2018-07-05T08:43:25.485Z,5.83
2018-07-05T08:45:53.136Z,6.70
2018-07-05T08:48:20.808Z,10.07
2018-07-05T08:50:48.467Z,6.03
2018-07-05T08:53:16.119Z,8.50
2018-07-05T08:55:43.827Z,5.60
2018-07-05T08:58:11.518Z,7.80
2018-07-05T09:00:39.443Z,7.03
2018-07-05T09:03:07.266Z,4.77
2018-07-05T09:05:34.848Z,13.80
2018-07-05T09:08:02.503Z,12.63
2018-07-05T09:10:30.191Z,5.77
2018-07-05T09:12:57.948Z,6.63
2018-07-05T09:15:25.647Z,25.80
2018-07-05T09:17:53.730Z,9.17
2018-07-05T09:20:21.106Z,6.37
2018-07-05T09:22:48.761Z,6.70
2018-07-05T09:25:16.404Z,8.40
2018-07-05T09:27:44.071Z,6.97
2018-07-05T09:30:11.718Z,11.67
2018-07-05T09:32:39.646Z,11.90
2018-07-05T09:35:07.443Z,7.97
2018-07-05T09:37:35.103Z,9.93
2018-07-05T09:40:02.775Z,4.57
2018-07-05T09:42:30.670Z,6.50
2018-07-05T09:44:58.222Z,7.40
2018-07-05T09:47:25.884Z,6.57
2018-07-05T09:49:53.551Z,6.10
2018-07-05T09:52:21.223Z,7.07
2018-07-05T09:54:48.884Z,7.37
2018-07-05T09:57:16.527Z,5.27
2018-07-05T09:59:44.178Z,9.03
2018-07-05T10:02:12.106Z,8.63
2018-07-05T10:04:39.660Z,3.87
2018-07-05T10:07:07.344Z,6.67
2018-07-05T10:09:34.982Z,7.50
2018-07-05T10:12:02.652Z,8.93
2018-07-05T10:14:30.446Z,5.60
2018-07-05T10:16:58.091Z,13.93
2018-07-05T10:19:25.784Z,14.03
2018-07-05T10:21:53.445Z,14.07
2018-07-05T10:24:21.359Z,9.53
2018-07-05T10:26:49.031Z,5.13
2018-07-05T10:29:29.263Z,6.50
2018-07-05T10:32:15.742Z,9.10
2018-07-05T10:34:49.475Z,11.13
2018-07-05T10:37:23.461Z,13.43
2018-07-05T10:39:58.404Z,5.97
2018-07-05T10:42:44.537Z,5.13
2018-07-05T10:45:30.938Z,4.53
2018-07-05T10:48:17.271Z,10.98
2018-07-05T10:51:03.471Z,10.38
2018-07-05T10:53:49.766Z,6.07
2018-07-05T10:56:36.259Z,13.18
2018-07-05T10:59:22.755Z,8.30
2018-07-05T11:02:09.159Z,7.50
2018-07-05T11:04:55.422Z,8.93
2018-07-05T11:07:41.753Z,4.70
2018-07-05T11:10:27.980Z,12.07
2018-07-05T11:13:14.185Z,11.75
2018-07-05T11:15:54.447Z,6.13
2018-07-05T11:18:40.864Z,4.22
2018-07-05T11:21:27.137Z,5.27
2018-07-05T11:24:13.327Z,8.17
2018-07-05T11:26:59.917Z,5.53
2018-07-05T11:29:46.345Z,5.83
2018-07-05T11:32:32.679Z,7.58
2018-07-05T11:35:19.095Z,7.43
2018-07-05T11:38:05.414Z,7.87
2018-07-05T11:40:51.745Z,4.45
2018-07-05T11:43:38.034Z,7.87
2018-07-05T11:46:24.357Z,8.20
2018-07-05T11:49:04.638Z,8.23
2018-07-05T11:51:51.420Z,5.83
2018-07-05T11:54:37.887Z,5.37
2018-07-05T11:57:18.025Z,9.20
2018-07-05T12:00:04.290Z,7.58
2018-07-05T12:02:44.491Z,10.13
2018-07-05T12:05:30.661Z,6.60
2018-07-05T12:08:16.992Z,9.18
2018-07-05T12:10:57.299Z,7.40
2018-07-05T12:13:43.819Z,4.33
2018-07-05T12:16:30.201Z,7.55
2018-07-05T12:19:16.547Z,7.77
2018-07-05T12:22:02.971Z,8.05
2018-07-05T12:24:49.341Z,7.17
2018-07-05T12:27:35.820Z,4.87
2018-07-05T12:30:22.271Z,10.87
2018-07-05T12:33:08.584Z,7.10
2018-07-05T12:35:54.896Z,8.15
2018-07-05T12:38:41.238Z,6.17
2018-07-05T12:41:27.521Z,5.53
2018-07-05T12:44:14.001Z,10.30
2018-07-05T12:47:00.252Z,8.90
2018-07-05T12:49:46.560Z,6.12
2018-07-05T12:52:32.953Z,9.13
2018-07-05T12:55:19.317Z,7.75
2018-07-05T12:58:05.627Z,6.92
2018-07-05T13:00:45.906Z,6.22
2018-07-05T13:03:31.997Z,9.58
2018-07-05T13:06:18.532Z,10.80
2018-07-05T13:09:06.319Z,5.03
2018-07-05T13:11:46.509Z,4.87
2018-07-05T13:14:33.036Z,6.83
2018-07-05T13:17:19.488Z,9.43
2018-07-05T13:20:05.843Z,6.45
2018-07-05T13:22:52.208Z,18.25
2018-07-05T13:25:38.661Z,7.80
2018-07-05T13:28:25.086Z,9.18
2018-07-05T13:31:11.345Z,7.72
2018-07-05T13:33:57.600Z,7.15
2018-07-05T13:36:43.858Z,7.03
2018-07-05T13:39:30.097Z,7.72
2018-07-05T13:42:16.493Z,10.40
2018-07-05T13:45:02.932Z,7.85
2018-07-05T13:47:49.245Z,10.58
2018-07-05T13:50:35.651Z,8.53
2018-07-05T13:53:21.941Z,5.65
2018-07-05T13:56:08.435Z,5.42
2018-07-05T13:58:54.734Z,8.18
2018-07-05T14:01:41.024Z,11.15
2018-07-05T14:04:27.348Z,7.97
2018-07-05T14:07:13.676Z,8.78
2018-07-05T14:10:00.052Z,6.55
2018-07-05T14:12:46.459Z,8.40
2018-07-05T14:15:32.952Z,12.65
2018-07-05T14:18:19.688Z,8.03
2018-07-05T14:21:05.935Z,9.73
2018-07-05T14:23:52.311Z,5.45
2018-07-05T14:26:38.732Z,9.95
2018-07-05T14:29:19.196Z,7.65
2018-07-05T14:32:05.852Z,14.23
2018-07-05T14:34:52.286Z,6.85
2018-07-05T14:37:38.584Z,7.70
2018-07-05T14:40:24.980Z,7.10
2018-07-05T14:43:11.222Z,7.10
2018-07-05T14:45:57.650Z,6.53
2018-07-05T14:48:44.033Z,13.68
2018-07-05T14:51:30.360Z,7.47
2018-07-05T14:54:16.564Z,7.70
2018-07-05T14:56:56.867Z,7.75
2018-07-05T14:59:37.009Z,4.90
2018-07-05T15:02:23.286Z,8.30
2018-07-05T15:05:09.645Z,7.03
2018-07-05T15:07:56.978Z,5.62
2018-07-05T15:10:43.233Z,10.45
2018-07-05T15:13:29.538Z,4.90
2018-07-05T15:16:15.982Z,9.43
2018-07-05T15:18:56.246Z,5.85
2018-07-05T15:21:42.572Z,8.23
2018-07-05T15:24:28.999Z,5.70
2018-07-05T15:27:09.387Z,10.38
2018-07-05T15:29:55.583Z,5.83
2018-07-05T15:32:41.978Z,4.60
2018-07-05T15:35:22.188Z,7.72
2018-07-05T15:38:08.535Z,6.20
2018-07-05T15:40:54.967Z,9.45
2018-07-05T15:43:41.346Z,8.88
2018-07-05T15:46:27.486Z,6.95
2018-07-05T15:49:13.852Z,11.48
2018-07-05T15:52:00.279Z,5.60
2018-07-05T15:54:46.582Z,5.10
2018-07-05T15:57:32.856Z,4.28
2018-07-05T16:00:19.285Z,4.47
2018-07-05T16:03:05.649Z,8.25
2018-07-05T16:05:52.077Z,15.20
2018-07-05T16:08:38.385Z,3.87
2018-07-05T16:11:24.804Z,4.20
2018-07-05T16:14:11.086Z,4.40
2018-07-05T16:16:57.413Z,7.78
2018-07-05T16:19:43.826Z,4.70
2018-07-05T16:22:30.046Z,4.97
2018-07-05T16:25:16.346Z,4.20
2018-07-05T16:28:02.640Z,5.45
2018-07-05T16:30:48.850Z,5.37
2018-07-05T16:33:29.160Z,8.28
2018-07-05T16:36:09.343Z,3.52
2018-07-05T16:38:55.501Z,4.30
2018-07-05T16:41:41.855Z,5.20
2018-07-05T16:44:28.042Z,5.50
2018-07-05T16:47:14.322Z,5.45
2018-07-05T16:50:00.655Z,5.12
2018-07-05T16:52:47.133Z,4.95
2018-07-05T16:55:33.687Z,5.37
2018-07-05T16:58:13.922Z,3.67
2018-07-05T17:00:54.209Z,6.37
2018-07-05T17:03:40.497Z,3.95
2018-07-05T17:06:27.001Z,6.55
2018-07-05T17:09:13.333Z,7.00
2018-07-05T17:11:53.904Z,2.75
2018-07-05T17:14:39.983Z,3.72
2018-07-05T17:17:20.260Z,2.77
2018-07-05T17:20:06.567Z,5.00
2018-07-05T17:22:46.895Z,2.95
2018-07-05T17:25:33.228Z,5.12
2018-07-05T17:28:13.628Z,5.47
2018-07-05T17:30:59.964Z,2.90
2018-07-05T17:33:46.323Z,2.60
2018-07-05T17:36:32.663Z,8.35
2018-07-05T17:39:19.132Z,7.95
2018-07-05T17:42:05.478Z,5.22
2018-07-05T17:44:52.000Z,3.40
2018-07-05T17:47:38.457Z,3.95
2018-07-05T17:50:24.822Z,7.83
2018-07-05T17:53:11.055Z,4.65
2018-07-05T17:55:57.531Z,2.70
2018-07-05T17:58:37.950Z,4.97
2018-07-05T18:01:24.219Z,2.45
2018-07-05T18:04:10.518Z,6.75
2018-07-05T18:06:56.640Z,4.15
2018-07-05T18:09:36.955Z,4.17
2018-07-05T18:12:23.226Z,6.10
2018-07-05T18:15:09.723Z,7.97
2018-07-05T18:17:56.031Z,3.62
2018-07-05T18:20:42.505Z,5.33
2018-07-05T18:23:28.756Z,3.95
2018-07-05T18:26:15.099Z,4.72
2018-07-05T18:28:55.361Z,17.35
2018-07-05T18:31:41.614Z,4.12
2018-07-05T18:34:28.009Z,5.33
2018-07-05T18:37:14.330Z,2.70
2018-07-05T18:40:00.605Z,3.40
2018-07-05T18:42:46.899Z,5.87
2018-07-05T18:45:33.403Z,4.30
2018-07-05T18:48:19.590Z,4.97
2018-07-05T18:51:05.928Z,3.87
2018-07-05T18:53:52.236Z,5.10
2018-07-05T18:56:38.500Z,5.12
2018-07-05T18:59:24.984Z,5.12
2018-07-05T19:02:11.348Z,5.95
2018-07-05T19:04:57.620Z,4.08
2018-07-05T19:07:43.909Z,4.63
2018-07-05T19:10:24.176Z,5.20
2018-07-05T19:13:04.356Z,4.87
2018-07-05T19:15:50.431Z,2.37
2018-07-05T19:18:30.704Z,5.27
2018-07-05T19:21:16.904Z,4.37
2018-07-05T19:24:03.214Z,17.73
2018-07-05T19:26:49.784Z,3.70
2018-07-05T19:29:36.230Z,10.07
2018-07-05T19:32:22.701Z,3.10
2018-07-05T19:35:09.095Z,5.67
2018-07-05T19:37:55.190Z,5.80
2018-07-05T19:40:35.539Z,4.97
2018-07-05T19:43:21.873Z,4.43
2018-07-05T19:46:08.359Z,5.20
2018-07-05T19:48:54.653Z,5.87
2018-07-05T19:51:34.984Z,3.87
2018-07-05T19:54:21.320Z,3.90
2018-07-05T19:57:07.532Z,6.57
2018-07-05T19:59:53.810Z,7.50
2018-07-05T20:02:40.178Z,4.20
2018-07-05T20:05:26.580Z,5.90
2018-07-05T20:08:12.861Z,5.20
2018-07-05T20:11:00.578Z,5.53
2018-07-05T20:13:46.879Z,3.30
2018-07-05T20:16:33.258Z,3.50
2018-07-05T20:19:13.752Z,2.90
2018-07-05T20:22:00.144Z,3.23
2018-07-05T20:24:46.376Z,4.17
2018-07-05T20:27:32.831Z,4.23
2018-07-05T20:30:19.157Z,3.93
2018-07-05T20:33:05.547Z,4.00
2018-07-05T20:35:45.876Z,5.50
2018-07-05T20:38:26.138Z,3.00
2018-07-05T20:41:12.336Z,3.67
2018-07-05T20:43:52.687Z,3.37
2018-07-05T20:46:39.001Z,2.90
2018-07-05T20:49:25.535Z,5.33
2018-07-05T20:52:11.907Z,5.07
2018-07-05T20:54:58.264Z,3.33
2018-07-05T20:57:44.588Z,5.13
2018-07-05T21:00:30.904Z,5.40
2018-07-05T21:03:17.158Z,4.07
2018-07-05T21:06:03.442Z,4.83
2018-07-05T21:08:49.681Z,4.20
2018-07-05T21:11:36.060Z,3.20
2018-07-05T21:14:22.312Z,3.57
2018-07-05T21:17:08.922Z,3.53
2018-07-05T21:19:55.340Z,6.50
2018-07-05T21:22:35.774Z,4.60
2018-07-05T21:25:22.001Z,3.13
2018-07-05T21:28:08.573Z,3.50
2018-07-05T21:30:55.081Z,4.23
2018-07-05T21:33:41.474Z,4.27
2018-07-05T21:36:27.696Z,4.30
2018-07-05T21:39:07.927Z,5.27
2018-07-05T21:41:54.143Z,5.40
2018-07-05T21:44:40.443Z,4.20
2018-07-05T21:47:20.884Z,3.77
2018-07-05T21:50:07.083Z,5.43
2018-07-05T21:52:53.460Z,8.47
2018-07-05T21:55:39.847Z,4.10
2018-07-05T21:58:26.870Z,6.73
2018-07-05T22:01:13.318Z,8.63
2018-07-05T22:03:53.614Z,10.33
2018-07-05T22:06:33.918Z,8.77
2018-07-05T22:09:14.208Z,4.27
2018-07-05T22:12:00.293Z,5.13
2018-07-05T22:14:46.658Z,8.13
2018-07-05T22:17:38.552Z,8.67
2018-07-05T22:20:30.430Z,3.73
2018-07-05T22:23:22.347Z,6.50
2018-07-05T22:26:14.311Z,6.43
2018-07-05T22:29:06.250Z,7.73
2018-07-05T22:31:58.917Z,6.23
2018-07-05T22:34:39.174Z,3.73
2018-07-05T22:37:25.388Z,4.17
2018-07-05T22:40:11.782Z,4.87
2018-07-05T22:42:58.034Z,5.53
2018-07-05T22:45:44.383Z,3.40
2018-07-05T22:48:30.668Z,7.50
2018-07-05T22:51:17.028Z,3.80
2018-07-05T22:54:03.414Z,5.67
2018-07-05T22:56:49.724Z,9.57
2018-07-05T22:59:36.127Z,5.90
2018-07-05T23:02:22.359Z,11.17
2018-07-05T23:05:08.638Z,10.67
2018-07-05T23:07:54.854Z,3.63
2018-07-05T23:10:41.416Z,4.00
2018-07-05T23:13:27.743Z,4.30
2018-07-05T23:16:14.146Z,6.50
2018-07-05T23:19:00.419Z,3.60
2018-07-05T23:21:46.715Z,3.67
2018-07-05T23:24:27.011Z,4.40
2018-07-05T23:27:13.336Z,3.17
2018-07-05T23:29:59.639Z,3.23
2018-07-05T23:32:45.918Z,3.20
2018-07-05T23:35:32.260Z,4.87
2018-07-05T23:38:18.711Z,4.47
2018-07-05T23:41:05.109Z,12.10
2018-07-05T23:43:45.354Z,4.70
2018-07-05T23:46:31.694Z,3.67
2018-07-05T23:49:18.144Z,3.40
2018-07-05T23:52:04.386Z,9.03
2018-07-05T23:54:50.786Z,3.60
2018-07-05T23:57:36.982Z,4.47
